Time;durP1;ratioP1;P1;durP2;ratioP2;P2;SDS_P1;SDS_P2;PMS_P1;PMS_P2;Temp;Humidity;BMP_temperature;BMP_pressure;BME280_temperature;BME280_humidity;BME280_pressure;Samples;Min_cycle;Max_cycle;Signal;HPM_P1;HPM_P2
2023/03/26 00:00:43;;;;;;;3.22;1.13;;;8.30;99.90;;;;;;5012431;28;20025;-76
2023/03/26 00:03:13;;;;;;;4.85;1.27;;;8.30;99.90;;;;;;5008033;28;20141;-76
2023/03/26 00:05:39;;;;;;;4.82;1.50;;;8.30;99.90;;;;;;5006847;28;20443;-75
2023/03/26 00:08:10;;;;;;;4.85;1.67;;;8.30;99.90;;;;;;5006712;28;20027;-74
2023/03/26 00:10:37;;;;;;;3.10;1.15;;;8.20;99.90;;;;;;5007412;28;20056;-74
2023/03/26 00:13:04;;;;;;;6.15;1.10;;;8.20;99.90;;;;;;5010139;28;20030;-75
2023/03/26 00:15:30;;;;;;;4.03;1.25;;;8.20;99.90;;;;;;5003459;28;20398;-76
2023/03/26 00:17:56;;;;;;;2.80;1.10;;;8.20;99.90;;;;;;4998771;28;20474;-76
2023/03/26 00:20:22;;;;;;;4.13;1.13;;;8.10;99.90;;;;;;5007064;28;20034;-75
2023/03/26 00:22:49;;;;;;;2.85;1.00;;;8.10;99.90;;;;;;5006638;28;20521;-75
2023/03/26 00:25:15;;;;;;;2.30;0.90;;;8.10;99.90;;;;;;5006194;28;20032;-76
2023/03/26 00:27:41;;;;;;;8.68;1.35;;;8.20;99.90;;;;;;5002992;28;20101;-75
2023/03/26 00:30:07;;;;;;;6.47;1.70;;;8.10;99.90;;;;;;5004250;28;20467;-74
2023/03/26 00:32:33;;;;;;;2.40;0.90;;;8.10;99.90;;;;;;5007957;28;20044;-74
2023/03/26 00:35:02;;;;;;;5.47;1.17;;;8.10;99.90;;;;;;5007627;28;20030;-76
2023/03/26 00:37:29;;;;;;;5.30;1.63;;;8.10;99.90;;;;;;5007998;28;20049;-76
2023/03/26 00:40:08;;;;;;;3.15;1.13;;;8.00;99.90;;;;;;5006737;28;20033;-75
2023/03/26 00:42:34;;;;;;;3.03;0.82;;;8.00;99.90;;;;;;5004720;28;20044;-75
2023/03/26 00:45:00;;;;;;;4.38;1.10;;;8.00;99.90;;;;;;5006944;28;20018;-75
2023/03/26 00:47:27;;;;;;;6.13;1.20;;;8.00;99.90;;;;;;5004761;28;20462;-75
2023/03/26 00:49:53;;;;;;;4.70;1.52;;;7.90;99.90;;;;;;5006545;28;20065;-75
2023/03/26 00:52:20;;;;;;;5.20;1.38;;;7.90;99.90;;;;;;5009972;28;20057;-75
2023/03/26 00:54:47;;;;;;;5.03;1.48;;;7.90;99.90;;;;;;5008035;28;20118;-74
2023/03/26 00:57:13;;;;;;;4.47;1.30;;;7.90;99.90;;;;;;5008530;28;20037;-74
2023/03/26 00:59:40;;;;;;;3.83;1.27;;;8.00;99.90;;;;;;5006591;28;20029;-75
2023/03/26 01:02:09;;;;;;;4.10;1.17;;;8.00;99.90;;;;;;5003761;28;20046;-75
2023/03/26 01:04:36;;;;;;;4.53;1.77;;;7.90;99.90;;;;;;5003355;28;20113;-75
2023/03/26 01:07:10;;;;;;;4.65;1.17;;;8.00;99.90;;;;;;5003635;28;20482;-74
2023/03/26 01:09:44;;;;;;;6.25;1.85;;;7.90;99.90;;;;;;5007880;28;20057;-74
2023/03/26 01:12:17;;;;;;;6.55;1.90;;;7.90;99.90;;;;;;5005639;28;20061;-75
2023/03/26 01:14:43;;;;;;;2.67;1.27;;;7.90;99.90;;;;;;5003370;28;20036;-76
2023/03/26 01:17:11;;;;;;;4.95;1.23;;;7.90;99.90;;;;;;5001465;28;20072;-75
2023/03/26 01:20:12;;;;;;;4.57;1.20;;;7.90;99.90;;;;;;5003097;28;20053;-75
2023/03/26 01:22:44;;;;;;;3.15;1.38;;;7.90;99.90;;;;;;5002032;28;20434;-75
2023/03/26 01:25:10;;;;;;;2.70;1.15;;;7.90;99.90;;;;;;5007164;28;20582;-76
2023/03/26 01:27:45;;;;;;;3.00;0.90;;;7.90;99.90;;;;;;5007391;28;20038;-75
2023/03/26 01:30:29;;;;;;;6.35;1.70;;;7.90;99.90;;;;;;5009444;28;20525;-75
2023/03/26 01:32:59;;;;;;;7.43;1.45;;;7.90;99.90;;;;;;4986855;28;20030;-75
2023/03/26 01:36:05;;;;;;;7.45;1.60;;;7.90;99.90;;;;;;5005981;28;20044;-76
2023/03/26 01:38:58;;;;;;;4.57;1.40;;;8.00;99.90;;;;;;4991728;28;20028;-76
2023/03/26 01:41:41;;;;;;;4.38;1.63;;;8.00;99.90;;;;;;5004843;28;20475;-75
2023/03/26 01:44:43;;;;;;;4.47;1.30;;;8.00;99.90;;;;;;5005554;28;20494;-76
2023/03/26 01:47:11;;;;;;;6.22;1.45;;;8.00;99.90;;;;;;5002477;28;20066;-77
2023/03/26 01:49:37;;;;;;;5.90;1.38;;;7.90;99.90;;;;;;5004378;28;20080;-75
2023/03/26 01:52:11;;;;;;;7.65;1.33;;;8.00;99.90;;;;;;5003505;28;20077;-76
2023/03/26 01:54:37;;;;;;;4.47;1.33;;;8.00;99.90;;;;;;4998958;28;20728;-76
2023/03/26 01:57:16;;;;;;;3.00;1.58;;;8.00;99.90;;;;;;4991396;28;20474;-76
2023/03/26 02:00:10;;;;;;;4.22;1.38;;;7.90;99.90;;;;;;5009278;28;20030;-75
2023/03/26 02:02:54;;;;;;;7.50;1.20;;;8.00;99.90;;;;;;5003786;28;20517;-76
2023/03/26 02:05:45;;;;;;;5.00;1.23;;;8.00;99.90;;;;;;5003818;28;20033;-76
2023/03/26 02:08:22;;;;;;;4.68;1.15;;;7.90;99.90;;;;;;4993484;28;20113;-76
2023/03/26 02:10:52;;;;;;;3.78;1.38;;;8.00;99.90;;;;;;5003582;28;20053;-75
2023/03/26 02:13:18;;;;;;;6.50;1.48;;;8.00;99.90;;;;;;5007886;28;20056;-76
2023/03/26 02:15:56;;;;;;;6.88;1.40;;;8.00;99.90;;;;;;4988432;28;20057;-76
2023/03/26 02:18:22;;;;;;;4.78;1.02;;;8.00;99.90;;;;;;4988883;28;20441;-76
2023/03/26 02:20:51;;;;;;;9.57;1.52;;;8.00;99.90;;;;;;5000208;28;20050;-75
2023/03/26 02:23:20;;;;;;;6.30;1.40;;;8.00;99.90;;;;;;4988791;28;20500;-76
2023/03/26 02:25:47;;;;;;;6.05;1.33;;;8.00;99.90;;;;;;5005319;28;20117;-76
2023/03/26 02:28:12;;;;;;;4.80;1.50;;;8.00;99.90;;;;;;5003120;28;20041;-76
2023/03/26 02:30:38;;;;;;;5.35;1.33;;;8.00;99.90;;;;;;5007913;28;20037;-76
2023/03/26 02:33:04;;;;;;;7.80;1.77;;;8.00;99.90;;;;;;5003327;28;20406;-76
2023/03/26 02:35:30;;;;;;;5.63;1.30;;;8.00;99.90;;;;;;5005489;28;20026;-75
2023/03/26 02:37:55;;;;;;;3.17;1.02;;;8.00;99.90;;;;;;4988823;28;20038;-75
2023/03/26 02:40:22;;;;;;;6.00;2.00;;;8.00;99.90;;;;;;5001575;28;20514;-77
2023/03/26 02:42:48;;;;;;;7.53;1.10;;;8.00;99.90;;;;;;5008069;28;20060;-75
2023/03/26 02:45:14;;;;;;;4.95;1.10;;;8.00;99.90;;;;;;5004440;28;20054;-75
2023/03/26 02:47:40;;;;;;;7.50;1.30;;;8.00;99.90;;;;;;5004019;28;20041;-76
2023/03/26 02:50:07;;;;;;;6.72;1.45;;;8.00;99.90;;;;;;5007640;28;20030;-76
2023/03/26 02:52:34;;;;;;;7.00;1.65;;;8.00;99.90;;;;;;4988292;28;20146;-76
2023/03/26 02:55:00;;;;;;;6.85;1.25;;;8.00;99.90;;;;;;5007579;28;20358;-75
2023/03/26 02:57:26;;;;;;;4.07;1.23;;;8.00;99.90;;;;;;5005801;28;20025;-76
2023/03/26 02:59:51;;;;;;;5.57;1.20;;;8.00;99.90;;;;;;5000771;28;20037;-76
2023/03/26 03:02:18;;;;;;;4.18;1.00;;;8.00;99.90;;;;;;5006224;28;20482;-75
2023/03/26 03:04:44;;;;;;;7.82;1.45;;;8.10;99.90;;;;;;5004998;28;20505;-75
2023/03/26 03:07:13;;;;;;;4.72;1.20;;;8.00;99.90;;;;;;5006245;28;20186;-74
2023/03/26 03:09:39;;;;;;;7.18;1.35;;;8.00;99.90;;;;;;5002680;28;20704;-74
2023/03/26 03:12:05;;;;;;;2.90;1.30;;;8.00;99.90;;;;;;5000916;28;20026;-74
2023/03/26 03:14:30;;;;;;;7.57;1.90;;;8.00;99.90;;;;;;5005388;28;20042;-75
2023/03/26 03:16:56;;;;;;;6.97;1.40;;;8.00;99.90;;;;;;5003679;28;20030;-75
2023/03/26 03:19:22;;;;;;;6.53;1.33;;;8.00;99.90;;;;;;5001915;28;20030;-74
2023/03/26 03:21:47;;;;;;;4.93;1.20;;;8.10;99.90;;;;;;5002991;28;20114;-74
2023/03/26 03:24:17;;;;;;;5.75;1.00;;;8.00;99.90;;;;;;5010596;28;20529;-74
2023/03/26 03:26:44;;;;;;;9.18;1.45;;;8.00;99.90;;;;;;5004062;28;20040;-74
2023/03/26 03:29:11;;;;;;;7.40;1.40;;;8.00;99.90;;;;;;4999972;28;20022;-75
2023/03/26 03:31:37;;;;;;;9.88;1.48;;;8.00;99.90;;;;;;4991601;28;20026;-75
2023/03/26 03:34:03;;;;;;;3.75;0.90;;;8.00;99.90;;;;;;4988179;28;20068;-75
2023/03/26 03:36:29;;;;;;;5.75;1.38;;;8.00;99.90;;;;;;5002135;28;20033;-75
2023/03/26 03:39:00;;;;;;;5.10;1.42;;;8.10;99.90;;;;;;4984309;28;20395;-75
2023/03/26 03:41:27;;;;;;;4.32;1.30;;;8.10;99.90;;;;;;4991659;28;20632;-75
2023/03/26 03:43:52;;;;;;;3.17;1.10;;;8.10;99.90;;;;;;5004721;28;20475;-75
2023/03/26 03:46:18;;;;;;;5.72;1.63;;;8.10;99.90;;;;;;5004304;28;20046;-75
2023/03/26 03:48:48;;;;;;;9.07;1.58;;;8.10;99.90;;;;;;5003888;28;20033;-75
2023/03/26 03:51:15;;;;;;;9.52;1.42;;;8.10;99.90;;;;;;5004488;28;20662;-75
2023/03/26 03:53:40;;;;;;;5.28;1.15;;;8.10;99.90;;;;;;5004964;28;20442;-74
2023/03/26 03:56:08;;;;;;;4.80;1.00;;;8.20;99.90;;;;;;5001614;28;20118;-75
2023/03/26 03:58:34;;;;;;;6.57;1.00;;;8.10;99.90;;;;;;5010881;28;20030;-76
2023/03/26 04:01:02;;;;;;;7.00;1.38;;;8.10;99.90;;;;;;5011064;28;20056;-76
2023/03/26 04:03:29;;;;;;;8.80;1.33;;;8.10;99.90;;;;;;5005567;28;20065;-76
2023/03/26 04:05:55;;;;;;;3.38;1.38;;;8.20;99.90;;;;;;5007890;28;20406;-76
2023/03/26 04:08:22;;;;;;;5.75;1.55;;;8.20;99.90;;;;;;5004552;28;20367;-75
2023/03/26 04:10:49;;;;;;;5.68;1.15;;;8.20;99.90;;;;;;5009890;28;20030;-76
2023/03/26 04:13:15;;;;;;;4.18;1.15;;;8.20;99.90;;;;;;5008677;28;20635;-75
2023/03/26 04:15:42;;;;;;;4.28;1.33;;;8.20;99.90;;;;;;5011722;28;20033;-75
2023/03/26 04:18:11;;;;;;;3.40;1.30;;;8.20;99.90;;;;;;5010497;28;20038;-76
2023/03/26 04:20:45;;;;;;;6.22;1.42;;;8.20;99.90;;;;;;5005968;28;20490;-76
2023/03/26 04:23:16;;;;;;;7.38;1.20;;;8.20;99.90;;;;;;5005847;28;20037;-75
2023/03/26 04:25:52;;;;;;;5.43;1.20;;;8.20;99.90;;;;;;4992804;28;20490;-75
2023/03/26 04:28:30;;;;;;;7.65;1.52;;;8.20;99.90;;;;;;4988021;28;20133;-74
2023/03/26 04:30:59;;;;;;;6.45;1.23;;;8.30;99.90;;;;;;5008263;28;20026;-74
2023/03/26 04:33:30;;;;;;;3.22;1.05;;;8.30;99.90;;;;;;5010182;28;20030;-75
2023/03/26 04:36:00;;;;;;;6.28;1.38;;;8.30;99.90;;;;;;5001931;28;20030;-76
2023/03/26 04:38:26;;;;;;;6.10;1.45;;;8.30;99.90;;;;;;5002994;28;20026;-75
2023/03/26 04:40:52;;;;;;;7.45;1.48;;;8.30;99.90;;;;;;4993982;28;20594;-75
2023/03/26 04:43:18;;;;;;;7.70;1.20;;;8.20;99.90;;;;;;5006188;28;20082;-75
2023/03/26 04:45:47;;;;;;;7.75;1.73;;;8.30;99.90;;;;;;5005124;28;20026;-76
2023/03/26 04:48:13;;;;;;;5.15;1.08;;;8.30;99.90;;;;;;5007335;28;20026;-75
2023/03/26 04:50:44;;;;;;;5.75;1.30;;;8.30;99.90;;;;;;5005769;28;20109;-75
2023/03/26 04:53:15;;;;;;;7.00;1.30;;;8.30;99.90;;;;;;5009985;28;20030;-75
2023/03/26 04:55:48;;;;;;;7.13;1.38;;;8.30;99.90;;;;;;4992135;28;20075;-76
2023/03/26 04:58:14;;;;;;;5.65;1.20;;;8.30;99.90;;;;;;5003562;28;20470;-75
2023/03/26 05:00:43;;;;;;;6.57;1.23;;;8.30;99.90;;;;;;5007895;28;20647;-75
2023/03/26 05:03:10;;;;;;;4.60;1.33;;;8.30;99.90;;;;;;4988482;28;20030;-75
2023/03/26 05:05:36;;;;;;;6.47;1.20;;;8.30;99.90;;;;;;5008067;28;20041;-75
2023/03/26 05:08:02;;;;;;;4.50;0.90;;;8.40;99.90;;;;;;5005236;28;20025;-75
2023/03/26 05:10:28;;;;;;;5.28;1.20;;;8.30;99.90;;;;;;5009375;28;20018;-75
2023/03/26 05:12:53;;;;;;;4.50;1.33;;;8.30;99.90;;;;;;5003349;28;20030;-75
2023/03/26 05:15:19;;;;;;;5.13;1.25;;;8.30;99.90;;;;;;4990680;28;20060;-75
2023/03/26 05:17:45;;;;;;;9.32;1.38;;;8.40;99.90;;;;;;5007616;28;20037;-75
2023/03/26 05:20:20;;;;;;;4.20;0.90;;;8.30;99.90;;;;;;4990105;28;20026;-75
2023/03/26 05:22:48;;;;;;;5.70;0.93;;;8.40;99.90;;;;;;5007752;28;20505;-75
2023/03/26 05:25:14;;;;;;;2.33;0.90;;;8.40;99.90;;;;;;5011498;28;20104;-75
2023/03/26 05:27:40;;;;;;;5.22;0.93;;;8.40;99.90;;;;;;5004499;28;20352;-75
2023/03/26 05:30:07;;;;;;;7.00;1.05;;;8.40;99.90;;;;;;5002988;28;20025;-76
2023/03/26 05:32:33;;;;;;;7.57;1.15;;;8.50;99.90;;;;;;5008745;28;20688;-75
2023/03/26 05:34:59;;;;;;;4.50;1.20;;;8.50;99.90;;;;;;5005891;28;20545;-75
2023/03/26 05:37:29;;;;;;;4.40;0.70;;;8.60;99.90;;;;;;4997374;28;20061;-76
2023/03/26 05:39:56;;;;;;;4.63;1.05;;;8.60;99.90;;;;;;5010528;28;20373;-75
2023/03/26 05:42:22;;;;;;;5.20;0.80;;;8.60;99.90;;;;;;5006478;28;20505;-75
2023/03/26 05:44:48;;;;;;;5.38;0.80;;;8.60;99.90;;;;;;5006604;28;20026;-76
2023/03/26 05:47:13;;;;;;;5.40;1.13;;;8.70;99.90;;;;;;5010531;28;20109;-75
2023/03/26 05:49:39;;;;;;;4.15;1.20;;;8.70;99.90;;;;;;5005717;28;20457;-75
2023/03/26 05:52:05;;;;;;;3.60;0.98;;;8.70;99.90;;;;;;4993683;28;20032;-75
2023/03/26 05:54:31;;;;;;;4.47;0.90;;;8.70;99.90;;;;;;5006168;28;20028;-75
2023/03/26 05:56:56;;;;;;;3.42;0.77;;;8.70;99.90;;;;;;5009455;28;20122;-76
2023/03/26 05:59:22;;;;;;;2.60;1.20;;;8.70;99.90;;;;;;5005078;28;20211;-76
2023/03/26 06:01:49;;;;;;;5.10;1.13;;;8.70;99.90;;;;;;5008747;28;20062;-76
2023/03/26 06:04:16;;;;;;;2.55;0.80;;;8.70;99.90;;;;;;5004984;28;20065;-75
2023/03/26 06:06:43;;;;;;;5.07;1.38;;;8.70;99.90;;;;;;5006373;28;20101;-75
2023/03/26 06:09:12;;;;;;;4.43;1.00;;;8.70;99.90;;;;;;4989393;28;20043;-75
2023/03/26 06:11:37;;;;;;;7.15;1.08;;;8.60;99.90;;;;;;5000116;28;20451;-75
2023/03/26 06:14:03;;;;;;;3.53;1.00;;;8.60;99.90;;;;;;5008553;28;20105;-75
2023/03/26 06:16:29;;;;;;;6.15;1.10;;;8.60;99.90;;;;;;5007066;28;20037;-75
2023/03/26 06:18:55;;;;;;;5.10;1.02;;;8.60;99.90;;;;;;5004321;28;20041;-75
2023/03/26 06:21:21;;;;;;;5.75;1.00;;;8.60;99.90;;;;;;5006581;28;20073;-75
2023/03/26 06:23:47;;;;;;;8.30;1.35;;;8.60;99.90;;;;;;5006590;28;20037;-75
2023/03/26 06:26:14;;;;;;;3.63;1.20;;;8.50;99.90;;;;;;5008283;28;20022;-75
2023/03/26 06:28:40;;;;;;;5.38;1.13;;;8.60;99.90;;;;;;5003897;28;20033;-75
2023/03/26 06:31:05;;;;;;;4.05;1.23;;;8.50;99.90;;;;;;4993631;28;20030;-75
2023/03/26 06:33:31;;;;;;;4.10;1.38;;;8.50;99.90;;;;;;5005926;28;20022;-75
2023/03/26 06:35:58;;;;;;;3.40;1.27;;;8.50;99.90;;;;;;5008751;28;20057;-75
2023/03/26 06:38:24;;;;;;;5.22;1.75;;;8.50;99.90;;;;;;5008894;28;20112;-75
2023/03/26 06:40:49;;;;;;;7.07;1.23;;;8.50;99.90;;;;;;5005619;28;20037;-75
2023/03/26 06:43:15;;;;;;;12.02;1.67;;;8.50;99.90;;;;;;5008251;28;20037;-75
2023/03/26 06:45:41;;;;;;;5.28;1.45;;;8.50;99.90;;;;;;5007622;28;20036;-76
2023/03/26 06:48:07;;;;;;;6.80;1.50;;;8.50;99.90;;;;;;5004048;28;20033;-75
2023/03/26 06:50:33;;;;;;;4.03;1.40;;;8.50;99.90;;;;;;4984662;28;20040;-75
2023/03/26 06:52:59;;;;;;;8.57;1.88;;;8.50;99.90;;;;;;4987746;28;20030;-75
2023/03/26 06:55:25;;;;;;;4.72;1.10;;;8.50;99.90;;;;;;5006110;28;20040;-76
2023/03/26 06:57:52;;;;;;;8.98;1.70;;;8.50;99.90;;;;;;5004904;28;20030;-75
2023/03/26 07:00:19;;;;;;;5.78;1.30;;;8.50;99.90;;;;;;5003433;28;20040;-75
2023/03/26 07:02:45;;;;;;;5.35;1.40;;;8.50;99.90;;;;;;4992139;28;20101;-76
2023/03/26 07:05:12;;;;;;;6.10;1.90;;;8.40;99.90;;;;;;5008790;28;20022;-75
2023/03/26 07:07:38;;;;;;;6.28;2.17;;;8.40;99.90;;;;;;5004970;28;20087;-76
2023/03/26 07:10:05;;;;;;;8.90;1.70;;;8.40;99.90;;;;;;5002337;28;20631;-75
2023/03/26 07:12:30;;;;;;;5.30;1.40;;;8.40;99.90;;;;;;5003427;28;20033;-75
2023/03/26 07:14:56;;;;;;;10.45;1.67;;;8.30;99.90;;;;;;4984634;28;20034;-75
2023/03/26 07:17:22;;;;;;;5.78;1.48;;;8.40;99.90;;;;;;4987458;28;20394;-75
2023/03/26 07:19:48;;;;;;;7.60;1.95;;;8.40;99.90;;;;;;5006045;28;20026;-75
2023/03/26 07:22:22;;;;;;;11.15;1.80;;;8.40;99.90;;;;;;5004928;28;20075;-75
2023/03/26 07:24:49;;;;;;;6.93;1.63;;;8.30;99.90;;;;;;5003671;28;20021;-75
2023/03/26 07:27:35;;;;;;;7.88;1.40;;;8.30;99.90;;;;;;5003879;28;20022;-76
2023/03/26 07:30:35;;;;;;;6.03;1.50;;;8.40;99.90;;;;;;5004791;28;20368;-76
2023/03/26 07:33:17;;;;;;;4.45;1.50;;;8.30;99.90;;;;;;4943774;28;20039;-75
2023/03/26 07:36:05;;;;;;;6.57;1.38;;;8.30;99.90;;;;;;5006121;28;20066;-75
2023/03/26 07:38:40;;;;;;;4.90;1.30;;;8.30;99.90;;;;;;5006220;28;20105;-76
2023/03/26 07:41:31;;;;;;;6.18;1.38;;;8.30;99.90;;;;;;5002923;28;20042;-76
2023/03/26 07:44:12;;;;;;;5.25;1.77;;;8.30;99.90;;;;;;5004389;28;20037;-75
2023/03/26 07:46:38;;;;;;;7.53;1.60;;;8.20;99.90;;;;;;5009523;28;20026;-75
2023/03/26 07:49:04;;;;;;;9.38;1.90;;;8.20;99.90;;;;;;5007694;28;20030;-76
2023/03/26 07:51:31;;;;;;;6.05;1.75;;;8.20;99.90;;;;;;5007004;28;20022;-76
2023/03/26 07:53:59;;;;;;;7.05;1.52;;;8.30;99.90;;;;;;5008163;28;20061;-76
2023/03/26 07:56:57;;;;;;;7.30;1.65;;;8.30;99.90;;;;;;5013499;28;20037;-76
2023/03/26 07:59:46;;;;;;;11.75;1.58;;;8.30;99.90;;;;;;5007932;28;20521;-76
2023/03/26 08:02:27;;;;;;;7.38;1.55;;;8.30;99.90;;;;;;5005461;28;20053;-76
2023/03/26 08:05:02;;;;;;;11.93;1.63;;;8.30;99.90;;;;;;5006773;28;20560;-76
2023/03/26 08:07:51;;;;;;;7.32;1.83;;;8.30;99.90;;;;;;5005956;28;20033;-76
2023/03/26 08:10:17;;;;;;;8.10;1.67;;;8.40;99.90;;;;;;5006573;28;20037;-75
2023/03/26 08:13:02;;;;;;;8.90;1.63;;;8.40;99.90;;;;;;5012884;28;20397;-75
2023/03/26 08:15:31;;;;;;;8.43;1.48;;;8.40;99.90;;;;;;5006032;28;20018;-76
2023/03/26 08:18:18;;;;;;;12.73;1.63;;;8.40;99.90;;;;;;5009707;28;20447;-77
2023/03/26 08:20:56;;;;;;;5.68;1.63;;;8.40;99.90;;;;;;4997062;28;20034;-75
2023/03/26 08:23:32;;;;;;;6.38;1.50;;;8.30;99.90;;;;;;5009019;28;20026;-76
2023/03/26 08:26:16;;;;;;;9.85;2.22;;;8.40;99.90;;;;;;5005104;28;20066;-76
2023/03/26 08:28:48;;;;;;;6.63;1.55;;;8.40;99.90;;;;;;5001628;28;20034;-75
2023/03/26 08:31:16;;;;;;;5.47;1.75;;;8.30;99.90;;;;;;5010452;28;20109;-76
2023/03/26 08:33:42;;;;;;;7.43;1.60;;;8.40;99.90;;;;;;5008560;28;20062;-77
2023/03/26 08:36:08;;;;;;;8.82;2.03;;;8.40;99.90;;;;;;5007034;28;20573;-75
2023/03/26 08:38:34;;;;;;;5.40;1.60;;;8.40;99.90;;;;;;5004482;28;20117;-76
2023/03/26 08:41:09;;;;;;;6.90;1.40;;;8.40;99.90;;;;;;5006194;28;20117;-76
2023/03/26 08:44:03;;;;;;;5.32;1.40;;;8.50;99.90;;;;;;5001568;28;20042;-75
2023/03/26 08:46:56;;;;;;;10.57;1.65;;;8.50;99.90;;;;;;5008874;28;20060;-76
2023/03/26 08:49:37;;;;;;;4.32;1.30;;;8.50;99.90;;;;;;5009231;28;20112;-76
2023/03/26 08:52:29;;;;;;;11.02;2.15;;;8.60;99.90;;;;;;4994199;28;20022;-76
2023/03/26 08:55:24;;;;;;;4.45;1.90;;;8.60;99.90;;;;;;5008297;28;20368;-76
2023/03/26 08:57:59;;;;;;;8.15;2.15;;;8.70;99.90;;;;;;5008095;28;20050;-76
2023/03/26 09:01:20;;;;;;;7.70;2.00;;;8.70;99.90;;;;;;5002967;28;20101;-76
2023/03/26 09:04:07;;;;;;;5.47;2.30;;;8.70;99.90;;;;;;4929237;29;20039;-75
2023/03/26 09:06:42;;;;;;;5.70;2.05;;;8.70;99.90;;;;;;5001950;28;20037;-76
2023/03/26 09:09:20;;;;;;;10.00;2.00;;;8.80;99.90;;;;;;5007412;28;20048;-75
2023/03/26 09:12:18;;;;;;;7.13;2.88;;;8.80;99.90;;;;;;5004949;28;20034;-76
2023/03/26 09:15:11;;;;;;;7.50;2.35;;;8.90;99.90;;;;;;5003126;28;20023;-76
2023/03/26 09:18:17;;;;;;;6.85;1.70;;;8.90;99.90;;;;;;5008176;28;20550;-76
2023/03/26 09:21:07;;;;;;;7.22;1.95;;;9.00;99.90;;;;;;5007142;28;20034;-76
2023/03/26 09:24:03;;;;;;;7.50;2.60;;;9.10;99.90;;;;;;5005119;28;20045;-77
2023/03/26 09:26:49;;;;;;;4.85;1.95;;;9.30;99.90;;;;;;5005966;28;20025;-76
2023/03/26 09:29:24;;;;;;;4.20;1.55;;;9.50;99.90;;;;;;5010993;28;20053;-76
2023/03/26 09:32:14;;;;;;;5.30;1.67;;;9.60;99.90;;;;;;5017165;28;20021;-76
2023/03/26 09:35:01;;;;;;;2.13;1.40;;;9.70;99.90;;;;;;5025439;28;20048;-75
2023/03/26 09:38:10;;;;;;;4.20;1.85;;;9.90;99.90;;;;;;5018699;28;20031;-76
2023/03/26 09:40:36;;;;;;;3.70;1.45;;;10.00;99.90;;;;;;5028801;28;20044;-77
2023/03/26 09:43:33;;;;;;;2.47;1.27;;;10.20;99.90;;;;;;5007709;28;20514;-77
2023/03/26 09:46:11;;;;;;;1.55;0.80;;;10.40;99.90;;;;;;5021727;28;20524;-76
2023/03/26 09:48:47;;;;;;;4.68;1.27;;;10.50;99.90;;;;;;5021896;22;20081;-80
2023/03/26 09:51:16;;;;;;;7.22;1.50;;;10.50;99.90;;;;;;5007116;28;20026;-80
2023/03/26 09:54:22;;;;;;;5.60;1.55;;;10.60;99.90;;;;;;5002409;28;20049;-80
2023/03/26 09:56:57;;;;;;;2.83;1.48;;;10.50;99.90;;;;;;4992400;28;20100;-80
2023/03/26 09:59:29;;;;;;;2.35;0.70;;;10.50;99.90;;;;;;4974133;28;20227;-79
2023/03/26 10:02:32;;;;;;;2.33;0.75;;;10.40;99.90;;;;;;4967897;28;20070;-81
2023/03/26 10:05:34;;;;;;;3.15;0.50;;;10.40;99.90;;;;;;4991061;28;20515;-78
2023/03/26 10:08:36;;;;;;;2.05;0.70;;;10.20;99.90;;;;;;4976919;28;20034;-78
2023/03/26 10:11:19;;;;;;;1.35;0.35;;;10.10;99.90;;;;;;4991066;28;20106;-79
2023/03/26 10:14:03;;;;;;;2.03;0.70;;;9.90;99.90;;;;;;4982520;28;20023;-78
2023/03/26 10:16:28;;;;;;;;;;;9.80;99.90;;;;;;4984196;28;20518;-78
2023/03/26 10:19:20;;;;;;;2.25;0.40;;;9.70;99.90;;;;;;4971674;28;19911;-78
2023/03/26 10:22:10;;;;;;;1.90;0.40;;;9.60;99.90;;;;;;4991447;28;20082;-78
2023/03/26 10:25:18;;;;;;;2.25;0.40;;;9.50;99.90;;;;;;4985231;28;20031;-79
2023/03/26 10:28:06;;;;;;;1.27;0.32;;;9.40;99.90;;;;;;4984321;28;20356;-78
2023/03/26 10:30:59;;;;;;;1.42;0.40;;;9.20;99.90;;;;;;4990686;28;20037;-78
2023/03/26 10:33:51;;;;;;;1.55;0.28;;;9.10;99.90;;;;;;4982507;28;20394;-78
2023/03/26 10:36:16;;;;;;;1.38;0.47;;;9.10;99.90;;;;;;4984347;28;20030;-79
2023/03/26 10:39:00;;;;;;;1.25;0.43;;;9.10;99.90;;;;;;4971016;28;20037;-79
2023/03/26 10:41:44;;;;;;;0.30;0.22;;;9.20;99.90;;;;;;4965141;28;20018;-79
2023/03/26 10:44:28;;;;;;;2.13;0.50;;;9.40;99.90;;;;;;4986866;28;20093;-80
2023/03/26 10:47:30;;;;;;;0.98;0.50;;;9.50;99.90;;;;;;4982156;28;20030;-80
2023/03/26 10:50:42;;;;;;;1.13;0.60;;;9.70;99.90;;;;;;4991966;28;20029;-79
2023/03/26 10:53:45;;;;;;;1.55;0.70;;;9.90;99.90;;;;;;4982651;28;20105;-80
2023/03/26 10:56:35;;;;;;;2.20;0.80;;;10.10;99.90;;;;;;4997326;28;20093;-80
2023/03/26 10:59:07;;;;;;;1.45;0.50;;;10.20;99.90;;;;;;4993989;28;20031;-81
2023/03/26 11:01:52;;;;;;;2.05;0.50;;;10.40;99.90;;;;;;4979165;28;20536;-80
2023/03/26 11:04:23;;;;;;;0.82;0.20;;;10.40;99.90;;;;;;4994298;28;20038;-82
2023/03/26 11:07:23;;;;;;;1.20;0.50;;;10.50;99.90;;;;;;4993610;28;20105;-81
2023/03/26 11:10:00;;;;;;;2.25;0.52;;;10.50;99.90;;;;;;4987266;28;20030;-80
2023/03/26 11:12:54;;;;;;;0.50;0.30;;;10.40;99.90;;;;;;4994035;28;20061;-81
2023/03/26 11:15:20;;;;;;;2.55;0.30;;;10.30;99.90;;;;;;4988203;28;20030;-81
2023/03/26 11:18:19;;;;;;;0.95;0.40;;;10.30;99.90;;;;;;4974706;28;20082;-79
2023/03/26 11:20:52;;;;;;;0.50;0.30;;;10.30;99.90;;;;;;4977112;28;20384;-80
2023/03/26 11:23:46;;;;;;;0.77;0.30;;;10.30;99.90;;;;;;4998756;28;20041;-81
2023/03/26 11:26:16;;;;;;;1.23;0.30;;;10.40;99.90;;;;;;4996001;28;20515;-80
2023/03/26 11:29:17;;;;;;;3.10;0.60;;;10.30;99.90;;;;;;5001080;28;20037;-80
2023/03/26 11:32:07;;;;;;;1.05;0.38;;;10.30;99.90;;;;;;5002935;28;20040;-81
2023/03/26 11:35:00;;;;;;;1.85;0.20;;;10.20;99.90;;;;;;4998821;28;20093;-79
2023/03/26 11:37:51;;;;;;;2.75;0.60;;;10.20;99.90;;;;;;4992834;28;20031;-78
2023/03/26 11:40:26;;;;;;;0.90;0.30;;;10.30;99.90;;;;;;4975447;28;20478;-78
2023/03/26 11:42:59;;;;;;;1.30;0.43;;;10.30;99.90;;;;;;4992574;28;20077;-79
2023/03/26 11:45:29;;;;;;;1.90;0.57;;;10.40;99.90;;;;;;4992174;28;20499;-79
2023/03/26 11:48:08;;;;;;;2.10;0.52;;;10.50;99.90;;;;;;5004244;28;20030;-79
2023/03/26 11:50:39;;;;;;;1.33;0.60;;;10.60;99.90;;;;;;4995173;28;20034;-79
2023/03/26 11:53:33;;;;;;;2.05;0.50;;;10.70;99.90;;;;;;4973378;28;20022;-80
2023/03/26 11:56:03;;;;;;;3.55;0.77;;;10.80;99.90;;;;;;4996844;28;20026;-80
2023/03/26 11:58:50;;;;;;;1.05;0.40;;;10.90;99.90;;;;;;4997693;28;20030;-79
2023/03/26 12:01:29;;;;;;;0.98;0.40;;;11.00;99.90;;;;;;4997041;28;20027;-79
2023/03/26 12:04:13;;;;;;;1.80;0.60;;;11.00;99.90;;;;;;5000901;28;20037;-79
2023/03/26 12:07:09;;;;;;;1.35;0.60;;;11.10;99.90;;;;;;4994859;28;20974;-79
2023/03/26 12:09:35;;;;;;;1.27;0.40;;;11.20;99.90;;;;;;4991147;28;20463;-81
2023/03/26 12:12:05;;;;;;;1.40;0.47;;;11.20;99.90;;;;;;4995082;28;20037;-80
2023/03/26 12:14:33;;;;;;;1.65;0.50;;;11.30;99.90;;;;;;4990453;28;20023;-80
2023/03/26 12:17:06;;;;;;;2.33;0.85;;;11.40;99.90;;;;;;4994319;28;20018;-79
2023/03/26 12:19:38;;;;;;;2.63;0.52;;;11.40;99.90;;;;;;4997265;28;20033;-80
2023/03/26 12:22:05;;;;;;;2.80;0.73;;;11.50;99.90;;;;;;4996994;28;20027;-79
2023/03/26 12:24:36;;;;;;;1.30;0.60;;;11.60;99.90;;;;;;4998227;28;20030;-80
2023/03/26 12:27:27;;;;;;;2.05;0.73;;;11.70;99.90;;;;;;4975944;28;20372;-78
2023/03/26 12:30:26;;;;;;;2.10;0.60;;;11.80;99.90;;;;;;4976364;28;20137;-80
2023/03/26 12:32:59;;;;;;;1.33;0.50;;;11.90;99.90;;;;;;4985011;28;20046;-80
2023/03/26 12:35:28;;;;;;;4.45;0.80;;;12.00;99.90;;;;;;4984983;28;20034;-79
2023/03/26 12:38:11;;;;;;;1.75;0.70;;;12.00;99.90;;;;;;4991795;28;20104;-79
2023/03/26 12:40:38;;;;;;;1.83;0.82;;;12.10;99.90;;;;;;4999099;28;20085;-79
2023/03/26 12:43:19;;;;;;;0.98;0.52;;;12.30;99.90;;;;;;4980267;28;20662;-78
2023/03/26 12:45:50;;;;;;;2.47;0.70;;;12.40;99.90;;;;;;4996840;28;20511;-79
2023/03/26 12:48:17;;;;;;;2.30;0.45;;;12.40;99.90;;;;;;5001255;28;20026;-80
2023/03/26 12:51:07;;;;;;;1.17;0.57;;;12.50;99.90;;;;;;4996046;28;20034;-79
2023/03/26 12:54:12;;;;;;;1.80;0.70;;;12.60;99.90;;;;;;4986160;28;20049;-80
2023/03/26 12:56:37;;;;;;;3.45;0.75;;;12.60;99.90;;;;;;4988056;28;20038;-79
2023/03/26 12:59:28;;;;;;;4.50;0.60;;;12.60;99.90;;;;;;4989913;28;20036;-80
2023/03/26 13:02:20;;;;;;;2.83;0.70;;;12.70;99.90;;;;;;4973133;28;20034;-80
2023/03/26 13:05:18;;;;;;;1.55;0.55;;;12.80;99.80;;;;;;4988599;28;20057;-79
2023/03/26 13:07:47;;;;;;;2.15;0.82;;;12.90;99.40;;;;;;4995113;28;20058;-79
2023/03/26 13:10:34;;;;;;;3.20;0.60;;;12.90;98.20;;;;;;4995734;28;20030;-81
2023/03/26 13:13:28;;;;;;;3.05;1.15;;;13.00;98.40;;;;;;5000045;28;20395;-81
2023/03/26 13:16:06;;;;;;;1.90;0.60;;;13.00;97.90;;;;;;4998301;28;20030;-81
2023/03/26 13:19:27;;;;;;;1.23;0.47;;;13.10;97.60;;;;;;4979823;28;20276;-81
2023/03/26 13:22:28;;;;;;;3.10;0.90;;;13.20;97.90;;;;;;4954438;28;20131;-81
2023/03/26 13:25:19;;;;;;;2.33;0.52;;;13.30;97.70;;;;;;4977342;28;20022;-81
2023/03/26 13:28:03;;;;;;;2.13;0.60;;;13.40;96.30;;;;;;5001003;28;20046;-82
2023/03/26 13:30:55;;;;;;;2.70;0.65;;;13.50;95.50;;;;;;4985209;28;20054;-81
2023/03/26 13:33:49;;;;;;;0.70;0.50;;;13.50;94.50;;;;;;4995656;28;20030;-82
2023/03/26 13:36:25;;;;;;;2.15;0.70;;;13.50;94.50;;;;;;4952815;28;20062;-80